Craig G — WDB5332 — position and weather

sailwx.info

Track history (hours):
 
Tides and Currents Weather Stations Pressure Air Temp Water Temp Dewpoint Dewpoint Depression Visibility Wind Speed Wind Dir Waves Ship Positions

Craig G

Owner: San Diego Towing & Marine Services,Inc., San Diego, CA. More information available from US FCC via Universal Licensing System and Coast Guard Vessel Documentation Center.

Last reported at 2015-Jan-30 20:33 UTC. Time now 2015-Apr-01 05:52 UTC.
Position N 32°42' W 117°09'.
Warning: this ship's position is months out of date.

Length 28 m; draft 2 m.

Type: Other ship. MMSI: 366908460.

Date/timePositionNaut miles runAvg speedWind from/ knotsBaromVisibWave heightAir tempDewpointWater temp
2015-Jan-30 20:33N 32°42' W 117°09'  
2015-Jan-27 00:14N 32°42' W 117°09'4 5.9
2015-Jan-26 23:33N 32°41' W 117°14'5 4.9
2015-Jan-26 22:33N 32°44' W 117°18'1212.4
2015-Jan-26 21:33N 32°56' W 117°21'1413.6
2015-Jan-26 20:34N 33°09' W 117°24'3 3.0
2015-Jan-26 19:33N 33°12' W 117°24'2 2.3
2015-Jan-26 18:33N 33°10' W 117°25'1413.7
2015-Jan-26 17:34N 32°57' W 117°25'1717.1
2015-Jan-26 16:33N 32°41' W 117°17'7 7.0
2015-Jan-26 15:33N 32°42' W 117°09'  
2015-Jan-24 07:23N 32°42' W 117°09'3 4.2
2015-Jan-24 06:33N 32°43' W 117°13'5 4.7
2015-Jan-24 05:33N 32°39' W 117°16'5 5.1
2015-Jan-24 04:33N 32°44' W 117°18'1 1.1
2015-Jan-24 03:33N 32°44' W 117°17'4 4.3
2015-Jan-24 02:33N 32°40' W 117°17'6 6.3
2015-Jan-24 01:33N 32°42' W 117°10'0 0.5
2015-Jan-24 00:34N 32°42' W 117°09'0 0.0
2015-Jan-22 19:25N 32°42' W 117°09'0 0.0
2015-Jan-22 18:33N 32°42' W 117°09'0 0.0
2015-Jan-22 01:33N 32°42' W 117°09'0 0.0
2015-Jan-22 00:34N 32°42' W 117°09'0 0.0
2015-Jan-21 23:33N 32°42' W 117°09'4 5.6
2015-Jan-21 22:49N 32°40' W 117°14'215.2
2015-Jan-21 22:43N 32°39' W 117°14'316.2
2015-Jan-21 22:31N 32°36' W 117°16'2 2.4
2015-Jan-21 21:33N 32°36' W 117°19'1 1.0
2015-Jan-21 20:33N 32°37' W 117°18'9 8.9
2015-Jan-21 19:33N 32°42' W 117°10'1 0.0
2015-Jan-21 00:18N 32°42' W 117°09'0 0.0
2015-Jan-20 23:33N 32°42' W 117°09'5 5.3
2015-Jan-20 22:33N 32°38' W 117°14'5 5.4
2015-Jan-20 21:34N 32°36' W 117°20'  
Track history (hours):
 
Tides and Currents Weather Stations Pressure Air Temp Water Temp Dewpoint Dewpoint Depression Visibility Wind Speed Wind Dir Waves Ship Positions

Craig G

Owner: San Diego Towing & Marine Services,Inc., San Diego, CA. More information available from US FCC via Universal Licensing System and Coast Guard Vessel Documentation Center.

Last reported at 2015-Jan-30 20:33 UTC. Time now 2015-Apr-01 05:52 UTC.
Position N 32°42' W 117°09'.
Warning: this ship's position is months out of date.

Length 28 m; draft 2 m.

Type: Other ship. MMSI: 366908460.

Date/timePositionNaut miles runAvg speedWind from/ knotsBaromVisibWave heightAir tempDewpointWater temp
2015-Jan-30 20:33N 32°42' W 117°09'  
2015-Jan-27 00:14N 32°42' W 117°09'4 5.9
2015-Jan-26 23:33N 32°41' W 117°14'5 4.9
2015-Jan-26 22:33N 32°44' W 117°18'1212.4
2015-Jan-26 21:33N 32°56' W 117°21'1413.6
2015-Jan-26 20:34N 33°09' W 117°24'3 3.0
2015-Jan-26 19:33N 33°12' W 117°24'2 2.3
2015-Jan-26 18:33N 33°10' W 117°25'1413.7
2015-Jan-26 17:34N 32°57' W 117°25'1717.1
2015-Jan-26 16:33N 32°41' W 117°17'7 7.0
2015-Jan-26 15:33N 32°42' W 117°09'  
2015-Jan-24 07:23N 32°42' W 117°09'3 4.2
2015-Jan-24 06:33N 32°43' W 117°13'5 4.7
2015-Jan-24 05:33N 32°39' W 117°16'5 5.1
2015-Jan-24 04:33N 32°44' W 117°18'1 1.1
2015-Jan-24 03:33N 32°44' W 117°17'4 4.3
2015-Jan-24 02:33N 32°40' W 117°17'6 6.3
2015-Jan-24 01:33N 32°42' W 117°10'0 0.5
2015-Jan-24 00:34N 32°42' W 117°09'0 0.0
2015-Jan-22 19:25N 32°42' W 117°09'0 0.0
2015-Jan-22 18:33N 32°42' W 117°09'0 0.0
2015-Jan-22 01:33N 32°42' W 117°09'0 0.0
2015-Jan-22 00:34N 32°42' W 117°09'0 0.0
2015-Jan-21 23:33N 32°42' W 117°09'4 5.6
2015-Jan-21 22:49N 32°40' W 117°14'215.2
2015-Jan-21 22:43N 32°39' W 117°14'316.2
2015-Jan-21 22:31N 32°36' W 117°16'2 2.4
2015-Jan-21 21:33N 32°36' W 117°19'1 1.0
2015-Jan-21 20:33N 32°37' W 117°18'9 8.9
2015-Jan-21 19:33N 32°42' W 117°10'1 0.0
2015-Jan-21 00:18N 32°42' W 117°09'0 0.0
2015-Jan-20 23:33N 32°42' W 117°09'5 5.3
2015-Jan-20 22:33N 32°38' W 117°14'5 5.4
2015-Jan-20 21:34N 32°36' W 117°20'  

Dump ship's entire track history